Africa, Pennsylvania
Current Conditions -  °F | °C
As of 8:53 PM on Sunday 21 Dec 2014 (Local Time) from KHGR Reporting Station
Clear Clear  
Wind Chill: 22°   Ceiling: Unl
Heat Index: 29°   Visibility: 7mi
Dew Point: 20°   Wind: 7mph
Humidity: 69%   Direction: 70°ENE
Pressure: 30.3"   Gusts: NA
Location:  39.8035°N, 77.9346°W
Report Text: KHGR 220153Z AUTO 07006KT 7SM CLR M02/M07 A3030 RMK AO2 SLP279 T10171067
Loading
Personal Weather Stations






























Interactive Weather Map New forecast layout! Learn more

10-Day Weather Forecast

Advertisements
Track Severe Weather on mobile